Time;durP1;ratioP1;P1;durP2;ratioP2;P2;SDS_P1;SDS_P2;PMS_P1;PMS_P2;Temp;Humidity;BMP_temperature;BMP_pressure;BME280_temperature;BME280_humidity;BME280_pressure;Samples;Min_cycle;Max_cycle;Signal;HPM_P1;HPM_P2
2021/09/29 00:02:11;;;;;;;35.88;26.92;;;;;;;13.86;100.00;93577.47;5071758;28;20048;-84
2021/09/29 00:04:37;;;;;;;35.20;27.75;;;;;;;13.43;100.00;93514.69;5071295;28;20052;-84
2021/09/29 00:07:04;;;;;;;43.75;27.58;;;;;;;13.85;100.00;93572.53;5071130;28;20508;-84
2021/09/29 00:09:31;;;;;;;44.00;28.33;;;;;;;13.70;100.00;93553.06;5071777;28;20044;-84
2021/09/29 00:11:59;;;;;;;36.35;26.63;;;;;;;13.58;100.00;93537.56;5071239;28;20512;-84
2021/09/29 00:14:26;;;;;;;39.70;27.17;;;;;;;13.74;100.00;93532.75;5070898;28;20401;-83
2021/09/29 00:16:53;;;;;;;39.05;25.92;;;;;;;14.06;100.00;93573.03;5070982;28;20434;-84
2021/09/29 00:19:20;;;;;;;39.90;25.92;;;;;;;14.14;100.00;93572.69;5071339;28;20139;-84
2021/09/29 00:21:47;;;;;;;34.80;26.73;;;;;;;14.06;100.00;93565.28;5071187;28;20055;-84
2021/09/29 00:24:14;;;;;;;37.10;26.55;;;;;;;13.90;100.00;93559.75;5070910;28;20044;-83
2021/09/29 00:26:41;;;;;;;36.03;26.48;;;;;;;13.94;100.00;93563.47;5070801;28;20056;-83
2021/09/29 00:29:09;;;;;;;38.08;26.65;;;;;;;13.85;100.00;93538.97;5071038;28;20402;-82
2021/09/29 00:31:38;;;;;;;32.67;25.50;;;;;;;13.91;100.00;93535.50;5070689;28;20049;-82
2021/09/29 00:34:11;;;;;;;36.80;25.27;;;;;;;13.96;100.00;93529.66;5070460;28;20079;-84
2021/09/29 00:36:39;;;;;;;39.15;25.35;;;;;;;14.33;100.00;93570.00;5070712;28;20063;-84
2021/09/29 00:39:06;;;;;;;34.92;25.83;;;;;;;14.33;100.00;93557.09;5070755;28;20063;-83
2021/09/29 00:41:33;;;;;;;32.20;24.90;;;;;;;14.17;100.00;93530.94;5073109;28;20048;-83
2021/09/29 00:44:01;;;;;;;36.25;24.08;;;;;;;14.16;100.00;93519.00;5070905;28;20051;-83
2021/09/29 00:46:30;;;;;;;29.55;23.95;;;;;;;14.62;100.00;93567.56;5070739;28;20143;-84
2021/09/29 00:48:56;;;;;;;29.80;23.67;;;;;;;14.45;100.00;93534.66;5070673;28;20044;-84
2021/09/29 00:51:24;;;;;;;27.42;21.27;;;;;;;14.49;100.00;93535.75;5070401;28;20439;-84
2021/09/29 00:53:53;;;;;;;29.00;22.05;;;;;;;14.75;100.00;93569.94;5070340;28;20050;-84
2021/09/29 00:56:21;;;;;;;26.60;21.60;;;;;;;14.61;100.00;93551.25;5070281;28;20056;-84
2021/09/29 00:58:48;;;;;;;26.83;21.10;;;;;;;14.12;100.00;93474.75;5078351;28;20052;-84
2021/09/29 01:01:15;;;;;;;26.17;21.55;;;;;;;14.37;100.00;93512.50;5090783;28;20109;-84
2021/09/29 01:03:45;;;;;;;25.73;21.83;;;;;;;14.49;100.00;93524.63;5090599;28;20469;-84
2021/09/29 01:06:18;;;;;;;26.02;20.90;;;;;;;14.60;100.00;93546.31;5090138;28;20048;-83
2021/09/29 01:08:52;;;;;;;27.05;21.45;;;;;;;14.59;100.00;93545.53;5090463;28;20044;-84
2021/09/29 01:11:26;;;;;;;29.00;21.25;;;;;;;14.77;100.00;93572.31;5090584;28;20044;-84
2021/09/29 01:14:04;;;;;;;27.48;21.35;;;;;;;14.78;100.00;93571.28;5090286;28;20492;-84
2021/09/29 01:16:34;;;;;;;25.77;21.15;;;;;;;14.77;100.00;93570.50;5090275;28;20063;-84
2021/09/29 01:19:05;;;;;;;27.63;22.35;;;;;;;14.74;100.00;93570.13;5081385;28;20048;-83
2021/09/29 01:21:44;;;;;;;26.92;21.60;;;;;;;14.74;100.00;93567.53;5069987;28;20056;-83
2021/09/29 01:24:19;;;;;;;27.83;21.88;;;;;;;14.53;100.00;93543.84;5070016;28;20049;-83
2021/09/29 01:26:49;;;;;;;29.70;24.23;;;;;;;14.25;100.00;93507.34;5068795;28;20075;-83
2021/09/29 01:29:20;;;;;;;29.42;22.85;;;;;;;14.35;100.00;93526.66;5070084;28;20067;-83
2021/09/29 01:31:47;;;;;;;27.88;21.30;;;;;;;14.67;100.00;93565.06;5069919;28;20048;-83
2021/09/29 01:34:14;;;;;;;29.92;23.65;;;;;;;14.65;100.00;93561.94;5069812;28;20055;-83
2021/09/29 01:36:43;;;;;;;30.73;23.63;;;;;;;14.41;100.00;93528.34;5069577;28;20045;-83
2021/09/29 01:39:11;;;;;;;27.95;22.55;;;;;;;14.32;100.00;93511.59;5069564;28;20052;-83
2021/09/29 01:41:40;;;;;;;30.80;23.45;;;;;;;14.50;100.00;93539.13;5069632;28;20479;-83
2021/09/29 01:44:09;;;;;;;30.90;24.25;;;;;;;14.68;100.00;93567.44;5069346;28;20057;-83
2021/09/29 01:46:36;;;;;;;30.58;22.48;;;;;;;14.63;100.00;93562.16;5069587;28;20056;-83
2021/09/29 01:49:09;;;;;;;30.83;23.48;;;;;;;14.76;100.00;93565.56;5069055;28;20056;-84
2021/09/29 01:51:40;;;;;;;31.48;25.15;;;;;;;14.70;100.00;93554.28;5069253;28;20045;-82
2021/09/29 01:54:08;;;;;;;31.10;23.55;;;;;;;14.73;100.00;93555.63;5069729;28;20051;-82
2021/09/29 01:56:36;;;;;;;31.42;24.00;;;;;;;14.76;100.00;93568.94;5070255;28;20047;-82
2021/09/29 01:59:04;;;;;;;30.23;23.35;;;;;;;14.50;100.00;93539.94;5068917;28;20064;-82
2021/09/29 02:01:36;;;;;;;29.35;23.67;;;;;;;14.62;100.00;93560.59;5069384;28;20053;-82
2021/09/29 02:04:03;;;;;;;31.00;25.10;;;;;;;14.49;100.00;93566.75;5068997;28;20049;-82
2021/09/29 02:06:30;;;;;;;31.30;23.13;;;;;;;14.42;100.00;93560.94;5069153;28;20056;-82
2021/09/29 02:08:57;;;;;;;31.52;24.98;;;;;;;13.57;100.00;93440.47;5069085;28;20044;-82
2021/09/29 02:11:24;;;;;;;31.45;25.33;;;;;;;14.42;100.00;93560.94;5068829;28;20048;-82
2021/09/29 02:13:51;;;;;;;34.83;26.90;;;;;;;14.35;100.00;93553.28;5069191;28;20041;-82
2021/09/29 02:16:18;;;;;;;36.13;27.25;;;;;;;14.33;100.00;93568.22;5069365;28;20072;-82
2021/09/29 02:18:46;;;;;;;33.72;26.88;;;;;;;14.25;100.00;93561.59;5069063;28;20048;-82
2021/09/29 02:21:13;;;;;;;34.00;27.00;;;;;;;14.17;100.00;93546.44;5069219;28;20048;-82
2021/09/29 02:23:40;;;;;;;34.38;26.98;;;;;;;14.10;100.00;93550.91;5069310;28;20394;-82
2021/09/29 02:26:07;;;;;;;34.72;26.15;;;;;;;14.25;100.00;93559.00;5069358;28;20060;-82
2021/09/29 02:28:33;;;;;;;31.75;25.38;;;;;;;14.35;100.00;93560.25;5069150;28;20052;-82
2021/09/29 02:31:00;;;;;;;32.92;25.60;;;;;;;14.23;100.00;93537.78;5068890;28;20052;-83
2021/09/29 02:33:27;;;;;;;36.28;27.80;;;;;;;14.54;100.00;93576.44;5069537;28;20044;-82
2021/09/29 02:35:55;;;;;;;33.17;25.58;;;;;;;14.57;100.00;93574.19;5069123;28;20048;-82
2021/09/29 02:38:22;;;;;;;36.95;27.50;;;;;;;14.61;100.00;93573.72;5071141;28;20505;-82
2021/09/29 02:40:49;;;;;;;36.15;28.63;;;;;;;14.61;100.00;93566.78;5073126;28;20059;-82
2021/09/29 02:43:16;;;;;;;33.80;27.30;;;;;;;14.57;100.00;93556.09;5072813;28;20049;-82
2021/09/29 02:45:44;;;;;;;33.25;25.63;;;;;;;14.70;100.00;93574.97;5072629;28;20060;-81
2021/09/29 02:48:11;;;;;;;32.40;25.90;;;;;;;14.65;100.00;93561.94;5073075;28;20464;-82
2021/09/29 02:50:38;;;;;;;33.05;26.17;;;;;;;14.68;100.00;93567.44;5072988;28;20056;-82
2021/09/29 02:53:07;;;;;;;35.42;25.27;;;;;;;14.58;100.00;93546.53;5072497;28;20041;-81
2021/09/29 02:55:34;;;;;;;30.55;23.52;;;;;;;14.76;100.00;93579.25;5072629;28;20048;-81
2021/09/29 02:58:01;;;;;;;25.20;19.63;;;;;;;14.72;100.00;93579.94;5072907;28;20045;-81
2021/09/29 03:00:27;;;;;;;21.92;16.92;;;;;;;14.52;100.00;93578.44;5072604;28;20048;-83
2021/09/29 03:02:54;;;;;;;19.17;14.27;;;;;;;14.40;100.00;93560.38;5076692;28;20048;-83
2021/09/29 03:05:21;;;;;;;17.00;13.40;;;;;;;14.33;100.00;93555.31;5071551;28;20496;-82
2021/09/29 03:07:48;;;;;;;17.48;12.90;;;;;;;14.22;100.00;93581.94;5072415;28;20438;-83
2021/09/29 03:10:16;;;;;;;15.93;12.80;;;;;;;14.14;100.00;93577.88;5072351;28;20041;-82
2021/09/29 03:12:43;;;;;;;15.82;12.23;;;;;;;13.90;100.00;93559.75;5072147;28;20052;-82
2021/09/29 03:15:10;;;;;;;14.13;11.38;;;;;;;13.78;100.00;93558.94;5072980;28;20059;-82
2021/09/29 03:17:37;;;;;;;13.75;11.75;;;;;;;13.56;100.00;93546.53;5072500;28;20052;-82
2021/09/29 03:20:04;;;;;;;13.75;10.77;;;;;;;13.54;100.00;93551.91;5072125;28;20045;-82
2021/09/29 03:22:32;;;;;;;12.95;10.45;;;;;;;13.38;100.00;93567.97;5072307;28;20052;-83
2021/09/29 03:24:59;;;;;;;12.63;10.82;;;;;;;13.33;100.00;93532.50;5072204;28;20091;-83
2021/09/29 03:27:27;;;;;;;13.63;11.25;;;;;;;13.33;100.00;93550.56;5072168;28;20060;-83
2021/09/29 03:29:54;;;;;;;12.95;10.93;;;;;;;13.36;100.00;93548.31;5072072;28;20048;-82
2021/09/29 03:32:21;;;;;;;13.45;10.77;;;;;;;13.48;100.00;93557.94;5072412;28;20060;-83
2021/09/29 03:34:47;;;;;;;15.10;11.77;;;;;;;13.51;100.00;93551.56;5072425;28;20067;-82
2021/09/29 03:37:14;;;;;;;14.98;12.75;;;;;;;13.53;100.00;93559.84;5072256;28;20056;-82
2021/09/29 03:39:41;;;;;;;14.90;12.68;;;;;;;13.31;100.00;93549.97;5072158;28;20045;-82
2021/09/29 03:42:09;;;;;;;14.20;12.38;;;;;;;13.20;100.00;93551.50;5072140;28;20041;-82
2021/09/29 03:44:37;;;;;;;15.68;12.65;;;;;;;13.18;100.00;93533.66;5072226;28;20048;-82
2021/09/29 03:47:04;;;;;;;14.18;12.68;;;;;;;13.33;100.00;93553.91;5071755;28;20071;-82
2021/09/29 03:49:31;;;;;;;14.48;12.60;;;;;;;13.33;100.00;93558.31;5071091;28;20045;-82
2021/09/29 03:51:58;;;;;;;15.23;13.35;;;;;;;12.83;100.00;93508.50;5071715;28;20051;-82
2021/09/29 03:54:25;;;;;;;16.52;13.38;;;;;;;13.11;100.00;93545.88;5071961;28;20048;-82
2021/09/29 03:56:52;;;;;;;16.15;14.10;;;;;;;12.88;100.00;93511.22;5071818;28;20433;-83
2021/09/29 03:59:18;;;;;;;14.48;12.38;;;;;;;12.82;100.00;93535.25;5071457;28;21326;-84
2021/09/29 04:01:47;;;;;;;16.17;14.25;;;;;;;12.72;100.00;93551.22;5071274;28;20496;-83
2021/09/29 04:04:14;;;;;;;18.67;14.80;;;;;;;12.89;100.00;93558.41;5071392;28;20052;-82
2021/09/29 04:06:40;;;;;;;17.85;14.32;;;;;;;12.88;100.00;93562.78;5071450;28;20506;-82
2021/09/29 04:09:07;;;;;;;16.77;14.45;;;;;;;13.02;100.00;93557.47;5071390;28;20040;-82
2021/09/29 04:11:34;;;;;;;15.98;13.00;;;;;;;12.75;100.00;93512.16;5071350;28;20140;-82
2021/09/29 04:14:01;;;;;;;16.40;13.25;;;;;;;13.05;100.00;93542.34;5071672;28;20048;-82
2021/09/29 04:16:28;;;;;;;14.43;12.30;;;;;;;13.00;100.00;93544.78;5071659;28;20052;-82
2021/09/29 04:18:57;;;;;;;14.43;11.93;;;;;;;13.07;100.00;93560.19;5071565;28;20098;-82
2021/09/29 04:21:24;;;;;;;14.40;12.90;;;;;;;12.68;100.00;93521.72;5070923;28;20406;-82
2021/09/29 04:23:50;;;;;;;15.80;13.65;;;;;;;12.49;100.00;93526.09;5071549;28;20044;-82
2021/09/29 04:26:18;;;;;;;15.73;13.23;;;;;;;12.74;100.00;93566.47;5071083;28;20059;-82
2021/09/29 04:28:44;;;;;;;16.52;13.40;;;;;;;12.69;100.00;93567.91;5070769;28;20059;-83
2021/09/29 04:31:11;;;;;;;17.42;13.20;;;;;;;12.71;100.00;93567.69;5071070;28;20501;-83
2021/09/29 04:33:39;;;;;;;14.73;12.40;;;;;;;12.81;100.00;93567.19;5071254;28;20052;-82
2021/09/29 04:36:07;;;;;;;15.82;12.50;;;;;;;12.63;100.00;93552.53;5070955;28;20045;-82
2021/09/29 04:38:34;;;;;;;15.77;12.55;;;;;;;12.76;100.00;93557.53;5070732;28;20040;-82
2021/09/29 04:41:00;;;;;;;16.35;13.73;;;;;;;12.84;100.00;93564.19;5070876;28;20045;-82
2021/09/29 04:43:27;;;;;;;16.30;12.18;;;;;;;12.91;100.00;93577.81;5071170;28;20052;-82
2021/09/29 04:45:54;;;;;;;15.40;12.75;;;;;;;12.77;100.00;93584.88;5070931;28;20045;-82
2021/09/29 04:48:21;;;;;;;16.20;12.63;;;;;;;12.26;100.00;93553.22;5070419;28;20052;-82
2021/09/29 04:50:47;;;;;;;16.73;13.63;;;;;;;12.45;100.00;93584.19;5070871;28;20051;-82
2021/09/29 04:53:16;;;;;;;15.80;13.50;;;;;;;12.29;100.00;93586.31;5070554;28;20049;-82
2021/09/29 04:55:43;;;;;;;16.52;13.77;;;;;;;12.32;100.00;93583.31;5070384;28;20056;-82
2021/09/29 04:58:11;;;;;;;17.17;14.05;;;;;;;12.07;100.00;93552.41;5070660;28;20045;-82
2021/09/29 05:00:38;;;;;;;16.42;13.15;;;;;;;12.50;100.00;93587.69;5070114;28;20493;-82
2021/09/29 05:03:07;;;;;;;15.75;12.73;;;;;;;12.58;100.00;93591.03;5070061;28;20058;-82
2021/09/29 05:05:35;;;;;;;14.73;13.10;;;;;;;12.17;100.00;93544.97;5070505;28;20481;-82
2021/09/29 05:08:04;;;;;;;15.90;12.35;;;;;;;12.37;100.00;93595.56;5070379;28;20526;-82
2021/09/29 05:10:40;;;;;;;16.08;11.88;;;;;;;12.27;100.00;93596.81;5070749;28;20045;-82
2021/09/29 05:13:12;;;;;;;13.18;11.18;;;;;;;12.17;100.00;93599.06;5070614;28;20064;-82
2021/09/29 05:15:39;;;;;;;14.45;12.23;;;;;;;11.99;100.00;93554.19;5070818;28;20524;-82
2021/09/29 05:18:07;;;;;;;26.48;19.00;;;;;;;12.13;100.00;93587.63;5070729;28;20051;-82
2021/09/29 05:20:33;;;;;;;15.15;12.02;;;;;;;12.19;100.00;93602.25;5070213;28;20060;-82
2021/09/29 05:23:00;;;;;;;13.90;11.38;;;;;;;12.29;100.00;93599.97;5069940;28;20051;-82
2021/09/29 05:25:27;;;;;;;13.52;11.73;;;;;;;12.09;100.00;93596.75;5070522;28;20067;-83
2021/09/29 05:27:57;;;;;;;13.85;11.27;;;;;;;12.10;100.00;93588.03;5046026;28;20048;-81
2021/09/29 05:30:24;;;;;;;13.90;11.15;;;;;;;12.16;100.00;93618.09;5069990;28;20098;-82
2021/09/29 05:32:51;;;;;;;13.40;11.27;;;;;;;11.86;100.00;93585.19;5070068;28;20074;-82
2021/09/29 05:35:18;;;;;;;14.23;11.57;;;;;;;12.13;100.00;93613.38;5069635;28;20520;-83
2021/09/29 05:37:45;;;;;;;12.23;10.63;;;;;;;12.10;100.00;93618.94;5069617;28;20405;-83
2021/09/29 05:40:13;;;;;;;12.77;10.80;;;;;;;12.03;100.00;93596.56;5069888;28;20059;-82
2021/09/29 05:42:40;;;;;;;11.82;9.82;;;;;;;11.95;100.00;93588.31;5069775;28;20049;-82
2021/09/29 05:45:09;;;;;;;11.90;10.45;;;;;;;12.21;100.00;93623.41;5069954;28;20049;-82
2021/09/29 05:47:36;;;;;;;12.50;10.98;;;;;;;12.00;100.00;93602.13;5069494;28;20140;-82
2021/09/29 05:50:02;;;;;;;15.07;11.18;;;;;;;12.25;100.00;93626.34;5069413;28;20553;-82
2021/09/29 05:52:29;;;;;;;13.30;10.75;;;;;;;12.14;100.00;93622.69;5069556;28;20059;-83
2021/09/29 05:54:56;;;;;;;12.77;11.05;;;;;;;12.21;100.00;93631.13;5069542;28;20421;-82
2021/09/29 05:57:23;;;;;;;12.27;10.68;;;;;;;12.13;100.00;93614.16;5069191;28;20052;-83
2021/09/29 05:59:50;;;;;;;12.88;11.52;;;;;;;12.14;100.00;93617.53;5069406;28;20436;-83
2021/09/29 06:02:19;;;;;;;15.00;11.98;;;;;;;12.23;100.00;93615.47;5070184;28;20098;-83
2021/09/29 06:04:46;;;;;;;13.88;11.38;;;;;;;12.58;100.00;93640.00;5070003;28;20052;-82
2021/09/29 06:07:15;;;;;;;12.73;11.40;;;;;;;12.67;100.00;93608.59;5069584;28;20497;-82
2021/09/29 06:09:42;;;;;;;13.38;10.27;;;;;;;13.15;100.00;93649.38;5069837;28;20373;-83
2021/09/29 06:12:10;;;;;;;15.13;11.50;;;;;;;13.20;100.00;93637.41;5069614;28;20063;-81
2021/09/29 06:14:37;;;;;;;14.35;10.50;;;;;;;13.31;100.00;93641.06;5069201;28;20041;-82
2021/09/29 06:17:12;;;;;;;12.25;10.13;;;;;;;13.48;100.00;93636.13;5069300;28;20151;-81
2021/09/29 06:19:40;;;;;;;13.93;11.47;;;;;;;13.59;100.00;93654.47;5069284;28;20052;-81
2021/09/29 06:22:08;;;;;;;12.07;10.48;;;;;;;13.56;100.00;93642.03;5068936;28;20087;-81
2021/09/29 06:24:35;;;;;;;14.05;11.05;;;;;;;13.61;100.00;93631.84;5069222;28;20098;-81
2021/09/29 06:27:02;;;;;;;11.48;9.57;;;;;;;13.64;100.00;93631.38;5069411;28;20040;-81
2021/09/29 06:29:28;;;;;;;13.18;11.00;;;;;;;13.63;100.00;93659.00;5069130;28;20052;-81
2021/09/29 06:31:57;;;;;;;13.60;10.95;;;;;;;13.85;100.00;93647.41;5069473;28;20432;-81
2021/09/29 06:34:24;;;;;;;13.38;11.98;;;;;;;14.05;100.00;93665.22;5069025;28;20564;-81
2021/09/29 06:36:52;;;;;;;13.23;10.25;;;;;;;13.95;100.00;93654.63;5069017;28;20509;-82
2021/09/29 06:39:20;;;;;;;14.45;10.48;;;;;;;13.86;100.00;93664.47;5069284;28;20044;-82
2021/09/29 06:41:46;;;;;;;13.65;11.00;;;;;;;13.48;100.00;93630.19;5069211;28;20059;-83
2021/09/29 06:44:14;;;;;;;13.52;11.40;;;;;;;13.59;100.00;93650.13;5068917;28;20484;-82
2021/09/29 06:46:41;;;;;;;16.38;11.88;;;;;;;13.55;100.00;93645.59;5069191;28;20048;-83
2021/09/29 06:49:08;;;;;;;14.25;11.73;;;;;;;13.14;100.00;93602.16;5069139;28;20412;-83
2021/09/29 06:51:35;;;;;;;14.50;12.18;;;;;;;13.58;100.00;93661.44;5068708;28;20428;-83
2021/09/29 06:54:04;;;;;;;12.48;11.15;;;;;;;13.47;100.00;93623.47;5068755;28;20358;-83
2021/09/29 06:56:30;;;;;;;15.30;11.57;;;;;;;13.55;100.00;93640.41;5066794;28;20049;-83
2021/09/29 06:58:57;;;;;;;13.45;11.35;;;;;;;13.51;100.00;93614.25;5066832;28;20067;-84
2021/09/29 07:01:24;;;;;;;16.02;11.30;;;;;;;13.56;100.00;93614.41;5067787;28;20056;-83
2021/09/29 07:03:51;;;;;;;13.20;10.68;;;;;;;14.19;100.00;93660.66;5068827;28;20048;-83
2021/09/29 07:06:18;;;;;;;12.00;10.02;;;;;;;13.98;100.00;93618.81;5068406;28;20048;-83
2021/09/29 07:08:46;;;;;;;11.05;9.25;;;;;;;14.44;100.00;93664.88;5068196;28;20492;-83
2021/09/29 07:11:17;;;;;;;11.60;9.30;;;;;;;14.12;100.00;93572.16;5068739;28;20060;-83
2021/09/29 07:13:45;;;;;;;11.38;8.48;;;;;;;14.81;100.00;93645.81;5068740;28;20389;-83
2021/09/29 07:16:12;;;;;;;10.45;8.18;;;;;;;14.89;100.00;93681.69;5068366;28;20131;-83
2021/09/29 07:18:40;;;;;;;9.50;7.93;;;;;;;14.99;100.00;93681.13;5068685;28;20044;-83
2021/09/29 07:21:07;;;;;;;10.80;9.10;;;;;;;14.86;100.00;93683.97;5069097;28;20139;-83
2021/09/29 07:23:34;;;;;;;10.75;8.73;;;;;;;14.98;100.00;93663.25;5069390;28;20052;-83
2021/09/29 07:26:01;;;;;;;10.07;8.55;;;;;;;15.08;100.00;93671.22;5072240;28;20048;-83
2021/09/29 07:28:31;;;;;;;10.63;8.38;;;;;;;15.24;100.00;93687.88;5072406;28;20057;-83
2021/09/29 07:30:58;;;;;;;9.43;7.45;;;;;;;15.54;100.00;93679.16;5071980;28;20045;-83
2021/09/29 07:33:25;;;;;;;8.90;7.50;;;;;;;15.29;100.00;93679.44;5071803;28;20506;-84
2021/09/29 07:35:52;;;;;;;8.27;7.35;;;;;;;15.66;100.00;93686.91;5072315;28;20044;-84
2021/09/29 07:38:18;;;;;;;10.68;8.02;;;;;;;15.58;100.00;93641.47;5071773;28;20055;-83
2021/09/29 07:40:45;;;;;;;8.75;7.30;;;;;;;16.21;100.00;93684.84;5072817;28;20485;-83
2021/09/29 07:43:12;;;;;;;8.88;6.95;;;;;;;15.93;100.00;93694.19;5073273;28;20044;-83
2021/09/29 07:45:40;;;;;;;9.88;7.55;;;;;;;16.36;100.00;93693.88;5071626;28;20560;-83
2021/09/29 07:48:07;;;;;;;10.30;8.18;;;;;;;16.50;100.00;93690.00;5073037;28;20044;-83
2021/09/29 07:50:34;;;;;;;10.93;8.30;;;;;;;16.17;100.00;93704.47;5071950;28;20090;-83
2021/09/29 07:53:01;;;;;;;11.60;9.18;;;;;;;15.93;100.00;93699.38;5080461;28;20044;-83
2021/09/29 07:55:28;;;;;;;9.73;8.15;;;;;;;16.03;100.00;93689.19;5091427;28;20044;-82
2021/09/29 07:57:55;;;;;;;11.95;8.43;;;;;;;15.25;100.00;93660.19;5092043;28;20434;-82
2021/09/29 08:00:22;;;;;;;11.35;9.13;;;;;;;15.69;100.00;93691.63;5091612;28;20579;-82
2021/09/29 08:02:52;;;;;;;10.63;8.77;;;;;;;15.70;100.00;93674.28;5091020;28;20052;-81
2021/09/29 08:05:20;;;;;;;9.45;8.38;;;;;;;15.70;100.00;93685.44;5091560;28;20493;-81
2021/09/29 08:07:49;;;;;;;10.38;8.20;;;;;;;15.83;100.00;93674.00;5091552;28;20048;-81
2021/09/29 08:10:17;;;;;;;9.18;8.15;;;;;;;15.74;100.00;93680.59;5091508;28;20056;-81
2021/09/29 08:12:44;;;;;;;9.98;8.07;;;;;;;15.29;100.00;93669.09;5091316;28;20055;-81
2021/09/29 08:15:13;;;;;;;9.82;8.32;;;;;;;15.78;100.00;93697.22;5091577;28;20051;-81
2021/09/29 08:17:40;;;;;;;9.27;7.78;;;;;;;15.81;100.00;93686.41;5091554;28;20044;-81
2021/09/29 08:20:10;;;;;;;9.10;7.80;;;;;;;16.15;100.00;93707.28;5091450;28;20127;-81
2021/09/29 08:22:38;;;;;;;9.95;8.10;;;;;;;16.09;100.00;93717.78;5091368;28;20044;-82
2021/09/29 08:25:15;;;;;;;10.18;7.97;;;;;;;16.00;100.00;93700.03;5091890;28;20048;-81
2021/09/29 08:27:54;;;;;;;10.32;7.97;;;;;;;16.52;100.00;93713.88;5079240;28;20764;-81
2021/09/29 08:30:27;;;;;;;8.23;7.00;;;;;;;16.61;100.00;93714.28;5091463;28;20056;-81
2021/09/29 08:32:58;;;;;;;11.40;8.48;;;;;;;16.66;100.00;93693.59;5091356;28;20059;-80
2021/09/29 08:35:30;;;;;;;10.57;8.13;;;;;;;16.46;100.00;93675.13;5090829;28;20048;-81
2021/09/29 08:38:03;;;;;;;9.13;7.47;;;;;;;16.45;100.00;93702.06;5091201;28;20079;-81
2021/09/29 08:40:42;;;;;;;10.15;8.35;;;;;;;15.76;100.00;93714.81;5091119;28;20044;-81
2021/09/29 08:43:23;;;;;;;11.45;8.07;;;;;;;15.44;100.00;93710.03;5091046;28;20040;-81
2021/09/29 08:45:55;;;;;;;9.73;7.78;;;;;;;15.72;100.00;93713.69;5091181;28;20125;-80
2021/09/29 08:48:32;;;;;;;9.30;7.78;;;;;;;15.84;100.00;93713.66;5091389;28;20097;-81
2021/09/29 08:53:55;;;;;;;10.27;7.95;;;;;;;16.02;100.00;93708.34;5086748;28;20087;-81
2021/09/29 08:56:36;;;;;;;9.95;7.68;;;;;;;15.66;100.00;93663.63;5091000;28;20495;-80
2021/09/29 09:15:48;;;;;;;10.95;7.50;;;;;;;17.23;96.68;93706.66;5090598;28;20149;-80
2021/09/29 09:18:16;;;;;;;10.45;7.68;;;;;;;16.66;97.27;93692.84;5090405;28;20044;-81
2021/09/29 09:20:46;;;;;;;9.05;7.45;;;;;;;17.08;96.97;93710.59;5090397;28;20656;-80
2021/09/29 09:23:14;;;;;;;10.48;8.38;;;;;;;16.59;97.60;93697.38;5090086;28;20074;-80
2021/09/29 09:25:43;;;;;;;10.50;8.00;;;;;;;16.61;100.00;93703.91;5090113;28;20056;-80
2021/09/29 09:28:14;;;;;;;13.90;8.20;;;;;;;16.67;100.00;93717.75;5089319;28;20077;-80
2021/09/29 09:30:41;;;;;;;9.88;7.63;;;;;;;16.59;100.00;93718.91;5090233;28;20048;-80
2021/09/29 09:33:08;;;;;;;8.35;7.40;;;;;;;16.30;100.00;93717.13;5090460;28;20052;-80
2021/09/29 09:35:43;;;;;;;10.25;7.75;;;;;;;16.06;100.00;93718.25;5090334;28;20047;-80
2021/09/29 09:38:16;;;;;;;9.93;7.90;;;;;;;16.06;100.00;93711.25;5090017;28;20086;-80
2021/09/29 09:40:44;;;;;;;10.82;8.00;;;;;;;16.08;100.00;93706.63;5089695;28;20059;-81
2021/09/29 09:43:12;;;;;;;9.55;8.05;;;;;;;15.60;100.00;93698.19;5090175;28;20431;-80
2021/09/29 09:45:43;;;;;;;9.40;7.63;;;;;;;15.56;100.00;93715.19;5089895;28;20055;-80
2021/09/29 09:48:15;;;;;;;10.45;8.27;;;;;;;15.67;100.00;93698.06;5089360;28;20093;-81
2021/09/29 09:50:42;;;;;;;11.52;8.85;;;;;;;15.73;100.00;93717.84;5089587;28;20048;-80
2021/09/29 09:53:12;;;;;;;9.85;8.10;;;;;;;16.12;100.00;93704.38;5090225;28;20568;-80
2021/09/29 09:55:39;;;;;;;9.65;7.95;;;;;;;16.14;100.00;93715.28;5084629;28;20040;-80
2021/09/29 09:58:08;;;;;;;11.00;8.20;;;;;;;16.45;100.00;93704.66;5089509;28;20043;-80
2021/09/29 10:00:36;;;;;;;10.00;7.90;;;;;;;16.34;100.00;93717.44;5089554;28;20043;-80
2021/09/29 10:03:04;;;;;;;9.27;7.88;;;;;;;15.88;100.00;93719.97;5089839;28;20048;-80
2021/09/29 10:05:32;;;;;;;8.75;7.28;;;;;;;15.64;100.00;93707.06;5069598;28;20131;-80
2021/09/29 10:08:01;;;;;;;10.13;7.90;;;;;;;15.42;100.00;93705.06;5067923;28;20123;-80
2021/09/29 10:10:32;;;;;;;11.48;8.07;;;;;;;15.75;100.00;93721.78;5069550;28;20044;-80
2021/09/29 10:13:29;;;;;;;10.05;8.45;;;;;;;15.61;100.00;93692.75;5077361;28;20040;-80
2021/09/29 10:27:13;;;;;;;11.68;9.13;;;;;;;15.86;100.00;93716.81;5089503;28;20616;-80
2021/09/29 10:29:43;;;;;;;9.73;8.18;;;;;;;15.28;100.00;93719.28;5089239;28;20608;-79
2021/09/29 10:32:18;;;;;;;13.18;9.60;;;;;;;15.44;100.00;93708.22;5089727;28;20074;-80
2021/09/29 10:35:07;;;;;;;15.15;12.05;;;;;;;15.54;100.00;93697.28;5089217;28;20048;-80
2021/09/29 10:37:57;;;;;;;12.18;9.98;;;;;;;15.59;100.00;93702.56;5089648;28;20094;-79
2021/09/29 10:40:36;;;;;;;10.98;9.13;;;;;;;15.74;100.00;93709.84;5088920;28;20051;-79
2021/09/29 10:43:04;;;;;;;12.55;9.95;;;;;;;15.50;100.00;93703.94;5088874;28;20058;-79
2021/09/29 10:45:46;;;;;;;11.23;9.23;;;;;;;15.57;100.00;93711.59;5089332;28;20135;-80
2021/09/29 10:51:20;;;;;;;12.18;9.38;;;;;;;15.71;100.00;93679.25;5078133;28;20044;-80
2021/09/29 11:27:49;;;;;;;12.55;9.73;;;;;;;16.32;100.00;93690.19;5092631;28;20086;-80
2021/09/29 11:30:22;;;;;;;12.35;9.77;;;;;;;16.52;98.96;93687.16;5092515;28;20137;-80
2021/09/29 11:32:53;;;;;;;12.65;9.25;;;;;;;16.44;99.26;93677.97;5092589;28;20048;-80
2021/09/29 11:35:31;;;;;;;13.90;10.38;;;;;;;16.28;99.41;93640.63;5092649;28;20048;-80
2021/09/29 11:38:21;;;;;;;11.10;8.85;;;;;;;16.57;98.77;93684.63;5092422;28;20079;-81
2021/09/29 12:09:04;;;;;;;12.77;10.15;;;;;;;16.30;100.00;93654.16;5071396;28;20054;-80
2021/09/29 12:11:41;;;;;;;12.73;10.57;;;;;;;16.21;99.58;93681.44;5070974;28;20098;-80
2021/09/29 12:14:14;;;;;;;12.70;9.80;;;;;;;16.34;99.24;93677.78;5071466;28;20102;-81
2021/09/29 12:16:41;;;;;;;11.60;9.13;;;;;;;16.27;99.30;93668.34;5071619;28;20060;-81
2021/09/29 12:19:10;;;;;;;11.88;9.57;;;;;;;16.17;98.22;93653.41;5071321;28;20044;-80
2021/09/29 12:21:42;;;;;;;12.65;10.15;;;;;;;16.74;98.17;93655.31;5071577;28;20133;-80
2021/09/29 12:24:11;;;;;;;13.13;9.38;;;;;;;16.65;96.83;93676.47;5071216;28;20040;-80
2021/09/29 12:26:46;;;;;;;15.45;11.43;;;;;;;16.34;98.54;93651.88;5071129;28;20048;-80
2021/09/29 12:29:21;;;;;;;13.53;10.20;;;;;;;16.88;96.27;93666.16;5071404;28;20056;-80
2021/09/29 12:34:47;;;;;;;14.80;11.50;;;;;;;17.24;96.42;93671.88;5065342;28;20094;-80
2021/09/29 12:37:15;;;;;;;16.55;11.63;;;;;;;17.13;96.21;93655.38;5070854;28;20052;-80
2021/09/29 12:39:43;;;;;;;13.73;10.55;;;;;;;17.13;96.68;93665.00;5070942;28;20051;-81
2021/09/29 12:42:11;;;;;;;14.52;11.30;;;;;;;17.07;96.52;93661.53;5071105;28;20147;-81
2021/09/29 12:44:51;;;;;;;14.52;11.07;;;;;;;17.10;95.01;93663.66;5071100;28;20079;-81
2021/09/29 12:47:24;;;;;;;15.45;11.35;;;;;;;17.18;97.25;93645.06;5070954;28;20127;-81
2021/09/29 12:49:51;;;;;;;13.68;10.65;;;;;;;16.90;95.98;93638.94;5081421;28;20147;-81
2021/09/29 12:52:31;;;;;;;14.02;10.57;;;;;;;17.01;95.38;93628.72;5090784;28;20051;-81
2021/09/29 12:54:59;;;;;;;16.33;12.82;;;;;;;17.09;96.57;93659.50;5090837;28;20059;-81
2021/09/29 12:57:29;;;;;;;15.02;11.55;;;;;;;17.19;95.85;93636.28;5090870;28;20044;-81
2021/09/29 12:59:56;;;;;;;14.77;11.90;;;;;;;16.50;98.53;93650.28;5090826;28;20050;-81
2021/09/29 13:02:23;;;;;;;15.30;11.82;;;;;;;16.44;99.57;93628.69;5090734;28;20458;-81